Pct Moose — CGCZ — position and weather

sailwx.info

Track history (hours):
 
Tides and Currents Weather Stations Pressure Air Temp Water Temp Dewpoint Dewpoint Depression Visibility Wind Speed Wind Dir Waves Ship Positions

Pct Moose

Last reported at 2016-Sep-30 17:33 UTC. Time now 2016-Sep-30 18:38 UTC.
Position N 49°24' W 123°44'.

Length 33 m; draft 2.6 m.

Type: Military. MMSI: 316013412.

Date/timePositionNaut miles runAvg speedWind from/ knotsBaromVisibWave heightAir tempDewpointWater temp
2016-Sep-30 17:33N 49°24' W 123°44'1211.5
2016-Sep-30 16:33N 49°27' W 124°01'2412.0
2016-Sep-30 14:33N 49°45' W 124°27'6 5.7
2016-Sep-30 13:33N 49°48' W 124°34'25 8.1
2016-Sep-30 10:32N 49°26' W 124°18'2311.7
2016-Sep-30 08:33N 49°15' W 123°46'2311.5
2016-Sep-30 06:33N 49°02' W 123°17'19 6.4
2016-Sep-30 03:33N 48°43' W 123°12'5 0.8
2016-Sep-29 21:20N 48°42' W 123°19'5 5.8
2016-Sep-29 20:33N 48°46' W 123°21'5 5.1
2016-Sep-29 19:33N 48°46' W 123°13'20 6.6
2016-Sep-29 16:33N 48°27' W 123°10'6 5.5
2016-Sep-29 15:31N 48°23' W 123°16'6 5.9
2016-Sep-29 14:33N 48°23' W 123°24'9 8.9
2016-Sep-29 13:32N 48°26' W 123°12'22 4.5
2016-Sep-29 08:33N 48°48' W 123°21'9 9.0
2016-Sep-29 07:33N 48°55' W 123°29'26 3.7
2016-Sep-29 00:33N 48°31' W 123°11'4 1.5
2016-Sep-28 21:33N 48°27' W 123°12'17 8.4
2016-Sep-28 19:33N 48°43' W 123°10'24 8.1
2016-Sep-28 16:33N 49°05' W 123°28'1212.4
2016-Sep-28 15:33N 49°13' W 123°42'3911.3
2016-Sep-28 12:09N 49°33' W 124°33'45 5.2
2016-Sep-28 03:33N 49°25' W 123°25'4 3.3
2016-Sep-28 02:21N 49°26' W 123°19'4 0.6
2016-Sep-27 19:33N 49°25' W 123°24'2 0.4
2016-Sep-27 14:33N 49°27' W 123°25'5 4.6
2016-Sep-27 13:33N 49°29' W 123°18'67 5.1
2016-Sep-27 00:33N 48°22' W 123°20'6 1.5
2016-Sep-26 20:33N 48°22' W 123°29'1 1.4
2016-Sep-26 19:33N 48°23' W 123°27'3 0.7
2016-Sep-26 15:20N 48°26' W 123°26'0 0.0
2016-Sep-26 13:30N 48°26' W 123°26'0 0.0
2016-Sep-26 11:34N 48°26' W 123°26'0 0.0
2016-Sep-26 08:29N 48°26' W 123°26'0 0.0
2016-Sep-26 02:33N 48°26' W 123°26'0 0.0
2016-Sep-26 01:33N 48°26' W 123°26'0 0.0
2016-Sep-26 00:33N 48°26' W 123°26'0 0.0
2016-Sep-25 21:28N 48°26' W 123°26'0 0.0
2016-Sep-25 17:33N 48°26' W 123°26'0 0.0
2016-Sep-25 16:31N 48°26' W 123°26'0 0.0
2016-Sep-25 15:33N 48°26' W 123°26'0 0.0
2016-Sep-25 14:33N 48°26' W 123°26'0 0.0
2016-Sep-25 12:32N 48°26' W 123°26'0 0.0
2016-Sep-25 11:33N 48°26' W 123°26'0 0.0
2016-Sep-25 10:32N 48°26' W 123°26'0 0.0
2016-Sep-25 09:33N 48°26' W 123°26'0 0.0
2016-Sep-25 07:33N 48°26' W 123°26'0 0.0
2016-Sep-25 04:32N 48°26' W 123°26'0 0.0
2016-Sep-25 00:30N 48°26' W 123°26'0 0.0
2016-Sep-24 22:33N 48°26' W 123°26'0 0.0
2016-Sep-24 21:31N 48°26' W 123°26'0 0.0
2016-Sep-24 19:12N 48°26' W 123°26'0 0.0
2016-Sep-24 18:33N 48°26' W 123°26'0 0.0
2016-Sep-24 17:27N 48°26' W 123°26'0 0.0
2016-Sep-24 16:33N 48°26' W 123°26'0 0.0
2016-Sep-24 14:32N 48°26' W 123°26'0 0.0
2016-Sep-24 12:33N 48°26' W 123°26'0 0.0
2016-Sep-24 10:33N 48°26' W 123°26'0 0.0
2016-Sep-24 09:33N 48°26' W 123°26'0 0.0
2016-Sep-24 03:30N 48°26' W 123°26'0 0.0
2016-Sep-24 02:32N 48°26' W 123°26'0 0.0
2016-Sep-24 01:28N 48°26' W 123°26'0 0.0
2016-Sep-24 00:33N 48°26' W 123°26'0 0.0
2016-Sep-23 19:32N 48°26' W 123°26'0 0.0
2016-Sep-23 17:29N 48°26' W 123°26'0 0.0
2016-Sep-23 16:18N 48°26' W 123°26'0 0.1
2016-Sep-23 15:32N 48°26' W 123°26'0 0.0
2016-Sep-23 13:32N 48°26' W 123°26'0 0.0
2016-Sep-23 09:30N 48°26' W 123°26'0 0.0
2016-Sep-23 06:33N 48°26' W 123°26'0 0.0
2016-Sep-23 04:32N 48°26' W 123°26'0 0.0
2016-Sep-23 03:32N 48°26' W 123°26'0 0.0
2016-Sep-23 02:29N 48°26' W 123°26'0 0.0
2016-Sep-23 01:33N 48°26' W 123°26'0 0.0
2016-Sep-23 00:34N 48°26' W 123°26'0 0.0
2016-Sep-22 23:33N 48°26' W 123°26'0 0.0
2016-Sep-22 00:33N 48°26' W 123°26'0 0.0
2016-Sep-21 23:32N 48°26' W 123°26'0 0.0
2016-Sep-21 22:33N 48°26' W 123°26'10 3.4
2016-Sep-21 19:33N 48°19' W 123°15'15 5.0
2016-Sep-21 16:33N 48°34' W 123°14'11 1.6
2016-Sep-21 09:32N 48°45' W 123°15'0 0.0
2016-Sep-21 08:30N 48°45' W 123°15'0 0.0
2016-Sep-21 05:32N 48°45' W 123°15'0 0.0
2016-Sep-21 03:28N 48°45' W 123°15'0 0.0
2016-Sep-21 02:29N 48°45' W 123°15'  
Track history (hours):
 
Tides and Currents Weather Stations Pressure Air Temp Water Temp Dewpoint Dewpoint Depression Visibility Wind Speed Wind Dir Waves Ship Positions

Pct Moose

Last reported at 2016-Sep-30 17:33 UTC. Time now 2016-Sep-30 18:38 UTC.
Position N 49°24' W 123°44'.

Length 33 m; draft 2.6 m.

Type: Military. MMSI: 316013412.

Date/timePositionNaut miles runAvg speedWind from/ knotsBaromVisibWave heightAir tempDewpointWater temp
2016-Sep-30 17:33N 49°24' W 123°44'1211.5
2016-Sep-30 16:33N 49°27' W 124°01'2412.0
2016-Sep-30 14:33N 49°45' W 124°27'6 5.7
2016-Sep-30 13:33N 49°48' W 124°34'25 8.1
2016-Sep-30 10:32N 49°26' W 124°18'2311.7
2016-Sep-30 08:33N 49°15' W 123°46'2311.5
2016-Sep-30 06:33N 49°02' W 123°17'19 6.4
2016-Sep-30 03:33N 48°43' W 123°12'5 0.8
2016-Sep-29 21:20N 48°42' W 123°19'5 5.8
2016-Sep-29 20:33N 48°46' W 123°21'5 5.1
2016-Sep-29 19:33N 48°46' W 123°13'20 6.6
2016-Sep-29 16:33N 48°27' W 123°10'6 5.5
2016-Sep-29 15:31N 48°23' W 123°16'6 5.9
2016-Sep-29 14:33N 48°23' W 123°24'9 8.9
2016-Sep-29 13:32N 48°26' W 123°12'22 4.5
2016-Sep-29 08:33N 48°48' W 123°21'9 9.0
2016-Sep-29 07:33N 48°55' W 123°29'26 3.7
2016-Sep-29 00:33N 48°31' W 123°11'4 1.5
2016-Sep-28 21:33N 48°27' W 123°12'17 8.4
2016-Sep-28 19:33N 48°43' W 123°10'24 8.1
2016-Sep-28 16:33N 49°05' W 123°28'1212.4
2016-Sep-28 15:33N 49°13' W 123°42'3911.3
2016-Sep-28 12:09N 49°33' W 124°33'45 5.2
2016-Sep-28 03:33N 49°25' W 123°25'4 3.3
2016-Sep-28 02:21N 49°26' W 123°19'4 0.6
2016-Sep-27 19:33N 49°25' W 123°24'2 0.4
2016-Sep-27 14:33N 49°27' W 123°25'5 4.6
2016-Sep-27 13:33N 49°29' W 123°18'67 5.1
2016-Sep-27 00:33N 48°22' W 123°20'6 1.5
2016-Sep-26 20:33N 48°22' W 123°29'1 1.4
2016-Sep-26 19:33N 48°23' W 123°27'3 0.7
2016-Sep-26 15:20N 48°26' W 123°26'0 0.0
2016-Sep-26 13:30N 48°26' W 123°26'0 0.0
2016-Sep-26 11:34N 48°26' W 123°26'0 0.0
2016-Sep-26 08:29N 48°26' W 123°26'0 0.0
2016-Sep-26 02:33N 48°26' W 123°26'0 0.0
2016-Sep-26 01:33N 48°26' W 123°26'0 0.0
2016-Sep-26 00:33N 48°26' W 123°26'0 0.0
2016-Sep-25 21:28N 48°26' W 123°26'0 0.0
2016-Sep-25 17:33N 48°26' W 123°26'0 0.0
2016-Sep-25 16:31N 48°26' W 123°26'0 0.0
2016-Sep-25 15:33N 48°26' W 123°26'0 0.0
2016-Sep-25 14:33N 48°26' W 123°26'0 0.0
2016-Sep-25 12:32N 48°26' W 123°26'0 0.0
2016-Sep-25 11:33N 48°26' W 123°26'0 0.0
2016-Sep-25 10:32N 48°26' W 123°26'0 0.0
2016-Sep-25 09:33N 48°26' W 123°26'0 0.0
2016-Sep-25 07:33N 48°26' W 123°26'0 0.0
2016-Sep-25 04:32N 48°26' W 123°26'0 0.0
2016-Sep-25 00:30N 48°26' W 123°26'0 0.0
2016-Sep-24 22:33N 48°26' W 123°26'0 0.0
2016-Sep-24 21:31N 48°26' W 123°26'0 0.0
2016-Sep-24 19:12N 48°26' W 123°26'0 0.0
2016-Sep-24 18:33N 48°26' W 123°26'0 0.0
2016-Sep-24 17:27N 48°26' W 123°26'0 0.0
2016-Sep-24 16:33N 48°26' W 123°26'0 0.0
2016-Sep-24 14:32N 48°26' W 123°26'0 0.0
2016-Sep-24 12:33N 48°26' W 123°26'0 0.0
2016-Sep-24 10:33N 48°26' W 123°26'0 0.0
2016-Sep-24 09:33N 48°26' W 123°26'0 0.0
2016-Sep-24 03:30N 48°26' W 123°26'0 0.0
2016-Sep-24 02:32N 48°26' W 123°26'0 0.0
2016-Sep-24 01:28N 48°26' W 123°26'0 0.0
2016-Sep-24 00:33N 48°26' W 123°26'0 0.0
2016-Sep-23 19:32N 48°26' W 123°26'0 0.0
2016-Sep-23 17:29N 48°26' W 123°26'0 0.0
2016-Sep-23 16:18N 48°26' W 123°26'0 0.1
2016-Sep-23 15:32N 48°26' W 123°26'0 0.0
2016-Sep-23 13:32N 48°26' W 123°26'0 0.0
2016-Sep-23 09:30N 48°26' W 123°26'0 0.0
2016-Sep-23 06:33N 48°26' W 123°26'0 0.0
2016-Sep-23 04:32N 48°26' W 123°26'0 0.0
2016-Sep-23 03:32N 48°26' W 123°26'0 0.0
2016-Sep-23 02:29N 48°26' W 123°26'0 0.0
2016-Sep-23 01:33N 48°26' W 123°26'0 0.0
2016-Sep-23 00:34N 48°26' W 123°26'0 0.0
2016-Sep-22 23:33N 48°26' W 123°26'0 0.0
2016-Sep-22 00:33N 48°26' W 123°26'0 0.0
2016-Sep-21 23:32N 48°26' W 123°26'0 0.0
2016-Sep-21 22:33N 48°26' W 123°26'10 3.4
2016-Sep-21 19:33N 48°19' W 123°15'15 5.0
2016-Sep-21 16:33N 48°34' W 123°14'11 1.6
2016-Sep-21 09:32N 48°45' W 123°15'0 0.0
2016-Sep-21 08:30N 48°45' W 123°15'0 0.0
2016-Sep-21 05:32N 48°45' W 123°15'0 0.0
2016-Sep-21 03:28N 48°45' W 123°15'0 0.0
2016-Sep-21 02:29N 48°45' W 123°15'  

Dump ship's entire track history